Time;durP1;ratioP1;P1;durP2;ratioP2;P2;SDS_P1;SDS_P2;PMS_P1;PMS_P2;Temp;Humidity;BMP_temperature;BMP_pressure;BME280_temperature;BME280_humidity;BME280_pressure;Samples;Min_cycle;Max_cycle;Signal;HPM_P1;HPM_P2
2022/03/27 00:01:15;;;;;;;8.45;5.35;;;7.50;85.50;;;;;;5074479;28;20048;-80
2022/03/27 00:03:41;;;;;;;8.57;5.53;;;7.50;85.50;;;;;;5074822;28;20036;-80
2022/03/27 00:06:07;;;;;;;7.47;6.15;;;7.40;85.60;;;;;;5074524;28;20549;-80
2022/03/27 00:08:32;;;;;;;8.38;5.35;;;7.50;85.80;;;;;;5074726;28;20074;-80
2022/03/27 00:13:42;;;;;;;9.73;6.18;;;7.40;85.90;;;;;;5078244;28;20051;-80
2022/03/27 00:16:09;;;;;;;7.88;5.72;;;7.40;86.10;;;;;;5078149;28;20043;-80
2022/03/27 00:18:36;;;;;;;8.40;6.13;;;7.40;86.30;;;;;;5045235;28;20167;-80
2022/03/27 00:21:05;;;;;;;8.55;5.82;;;7.40;86.10;;;;;;5061681;28;20399;-80
2022/03/27 00:23:31;;;;;;;8.45;5.97;;;7.30;86.10;;;;;;5061456;28;20036;-80
2022/03/27 00:25:57;;;;;;;9.20;6.13;;;7.30;86.10;;;;;;5079979;28;20063;-81
2022/03/27 00:28:23;;;;;;;9.88;6.00;;;7.30;86.20;;;;;;5061384;28;20039;-80
2022/03/27 00:30:49;;;;;;;11.27;7.00;;;7.30;86.00;;;;;;5061288;28;20040;-80
2022/03/27 00:33:15;;;;;;;10.95;6.50;;;7.40;86.20;;;;;;5061252;28;20039;-80
2022/03/27 00:35:40;;;;;;;12.20;6.53;;;7.40;86.20;;;;;;5077707;28;20056;-80
2022/03/27 00:38:07;;;;;;;11.75;7.00;;;7.40;86.30;;;;;;5077993;28;20043;-80
2022/03/27 00:40:34;;;;;;;10.25;7.32;;;7.50;86.40;;;;;;5077690;28;20044;-80
2022/03/27 00:42:59;;;;;;;12.15;8.50;;;7.50;86.20;;;;;;5077938;28;20058;-80
2022/03/27 00:45:25;;;;;;;13.43;9.25;;;7.50;86.40;;;;;;5077625;28;20422;-80
2022/03/27 00:47:51;;;;;;;12.13;9.18;;;7.50;86.60;;;;;;5060925;28;20036;-80
2022/03/27 00:50:17;;;;;;;14.43;10.23;;;7.50;86.40;;;;;;5077561;28;20384;-80
2022/03/27 00:52:42;;;;;;;15.95;9.90;;;7.50;86.50;;;;;;5060905;28;20113;-80
2022/03/27 00:55:08;;;;;;;12.82;8.05;;;7.50;86.40;;;;;;5077720;28;20051;-80
2022/03/27 00:57:35;;;;;;;14.25;9.60;;;7.50;86.40;;;;;;5060984;28;20455;-80
2022/03/27 01:00:00;;;;;;;14.10;9.35;;;7.50;86.30;;;;;;5077021;28;20048;-81
2022/03/27 01:02:26;;;;;;;9.82;6.35;;;7.50;86.30;;;;;;5077249;28;20299;-80
2022/03/27 01:04:54;;;;;;;10.95;7.60;;;7.50;86.30;;;;;;5077327;28;20043;-80
2022/03/27 01:07:20;;;;;;;10.45;7.35;;;7.50;86.40;;;;;;5077421;28;20066;-80
2022/03/27 01:09:46;;;;;;;9.07;7.75;;;7.50;86.30;;;;;;5043828;28;20480;-80
2022/03/27 01:12:18;;;;;;;10.25;7.93;;;7.40;86.20;;;;;;5077040;28;20158;-80
2022/03/27 01:14:44;;;;;;;11.07;7.20;;;7.40;86.40;;;;;;5077110;28;20522;-80
2022/03/27 01:17:13;;;;;;;9.27;6.78;;;7.50;86.40;;;;;;5076984;28;20044;-80
2022/03/27 01:19:41;;;;;;;9.65;6.93;;;7.50;86.40;;;;;;5077164;28;20484;-80
2022/03/27 01:22:07;;;;;;;13.93;7.32;;;7.50;86.30;;;;;;5060032;28;20036;-80
2022/03/27 01:24:33;;;;;;;10.77;7.00;;;7.50;86.40;;;;;;5076929;28;20044;-80
2022/03/27 01:26:59;;;;;;;9.45;5.70;;;7.50;86.50;;;;;;5077054;28;20032;-80
2022/03/27 01:29:24;;;;;;;8.02;5.20;;;7.50;86.50;;;;;;5076767;28;20395;-80
2022/03/27 01:31:51;;;;;;;12.23;6.53;;;7.50;86.40;;;;;;5076708;28;20093;-80
2022/03/27 01:34:19;;;;;;;9.20;5.80;;;7.50;86.40;;;;;;5060219;28;20109;-80
2022/03/27 01:36:44;;;;;;;11.18;7.35;;;7.50;86.50;;;;;;5076611;28;20056;-80
2022/03/27 01:39:12;;;;;;;15.10;7.82;;;7.50;86.60;;;;;;5076572;28;20047;-80
2022/03/27 01:41:39;;;;;;;12.77;7.05;;;7.50;86.90;;;;;;5060213;28;20036;-80
2022/03/27 01:44:08;;;;;;;14.50;7.75;;;7.50;86.90;;;;;;5076586;28;20047;-80
2022/03/27 01:46:37;;;;;;;13.48;7.15;;;7.50;86.70;;;;;;5076741;28;20044;-80
2022/03/27 01:49:08;;;;;;;12.27;7.32;;;7.50;86.80;;;;;;5076191;28;20071;-80
2022/03/27 01:51:35;;;;;;;16.70;8.48;;;7.40;87.00;;;;;;5059704;28;20456;-80
2022/03/27 01:54:01;;;;;;;16.40;8.48;;;7.50;87.10;;;;;;5059687;28;20032;-80
2022/03/27 01:56:27;;;;;;;15.73;8.13;;;7.40;87.30;;;;;;5059615;28;20537;-80
2022/03/27 01:58:53;;;;;;;20.17;8.80;;;7.40;87.20;;;;;;5059581;28;20044;-80
2022/03/27 02:01:19;;;;;;;16.17;8.70;;;7.40;87.50;;;;;;5076190;28;20048;-80
2022/03/27 02:03:46;;;;;;;17.58;9.07;;;7.40;87.60;;;;;;5076116;28;20040;-80
2022/03/27 02:06:12;;;;;;;19.50;9.13;;;7.40;87.60;;;;;;5076203;28;20039;-79
2022/03/27 02:08:38;;;;;;;19.92;8.48;;;7.40;87.60;;;;;;5042780;28;20124;-80
2022/03/27 02:11:05;;;;;;;18.52;9.20;;;7.40;87.90;;;;;;5075948;28;20048;-80
2022/03/27 02:13:31;;;;;;;19.20;8.95;;;7.40;88.30;;;;;;5076232;28;20074;-80
2022/03/27 02:15:57;;;;;;;13.95;8.15;;;7.40;88.40;;;;;;5042578;28;20128;-80
2022/03/27 02:18:28;;;;;;;17.52;9.00;;;7.40;88.10;;;;;;5075807;28;20054;-80
2022/03/27 02:20:55;;;;;;;16.55;9.05;;;7.50;88.20;;;;;;5075863;28;20434;-80
2022/03/27 02:23:25;;;;;;;14.10;8.88;;;7.40;88.40;;;;;;5059141;28;20119;-80
2022/03/27 02:25:51;;;;;;;19.73;9.27;;;7.40;88.20;;;;;;5058920;28;20028;-80
2022/03/27 02:28:17;;;;;;;18.23;8.45;;;7.50;88.50;;;;;;5059080;28;20043;-79
2022/03/27 02:30:43;;;;;;;18.02;8.68;;;7.40;88.20;;;;;;5059004;28;20127;-80
2022/03/27 02:33:09;;;;;;;17.25;9.32;;;7.40;88.20;;;;;;5074742;28;20071;-80
2022/03/27 02:35:35;;;;;;;15.90;7.57;;;7.40;88.10;;;;;;5058617;28;20139;-81
2022/03/27 02:38:06;;;;;;;20.98;8.40;;;7.40;88.30;;;;;;5058893;28;20093;-81
2022/03/27 02:40:36;;;;;;;28.08;8.90;;;7.40;88.50;;;;;;5075438;28;20469;-81
2022/03/27 02:43:02;;;;;;;18.40;7.93;;;7.40;88.30;;;;;;5075504;28;20115;-81
2022/03/27 02:45:29;;;;;;;16.33;8.52;;;7.40;88.40;;;;;;5075214;28;20123;-81
2022/03/27 02:47:56;;;;;;;18.42;8.32;;;7.40;88.50;;;;;;5058958;28;20079;-81
2022/03/27 02:50:22;;;;;;;19.10;7.88;;;7.40;88.30;;;;;;5075339;28;20059;-81
2022/03/27 02:52:47;;;;;;;15.18;6.85;;;7.50;88.20;;;;;;5075335;28;20040;-81
2022/03/27 02:55:13;;;;;;;17.90;7.60;;;7.50;88.40;;;;;;5075201;28;20473;-81
2022/03/27 02:57:39;;;;;;;14.82;7.57;;;7.50;88.30;;;;;;5058557;28;20081;-81
2022/03/27 03:00:07;;;;;;;17.05;7.22;;;7.50;88.10;;;;;;5058504;28;20036;-81
2022/03/27 03:02:34;;;;;;;12.60;6.60;;;7.50;88.20;;;;;;5075050;28;20044;-81
2022/03/27 03:05:00;;;;;;;14.52;6.78;;;7.50;88.10;;;;;;5058539;28;20036;-81
2022/03/27 03:07:26;;;;;;;19.67;7.35;;;7.50;88.00;;;;;;5058312;28;20045;-81
2022/03/27 03:09:52;;;;;;;18.05;6.93;;;7.50;88.00;;;;;;5075193;28;20044;-81
2022/03/27 03:12:18;;;;;;;16.88;6.93;;;7.50;87.90;;;;;;5075400;28;20054;-81
2022/03/27 03:14:44;;;;;;;20.15;7.10;;;7.50;87.80;;;;;;5075010;28;20411;-81
2022/03/27 03:17:10;;;;;;;17.27;6.55;;;7.50;87.80;;;;;;5058286;28;20048;-81
2022/03/27 03:19:37;;;;;;;15.38;6.68;;;7.40;87.80;;;;;;5058130;28;20052;-81
2022/03/27 03:22:03;;;;;;;13.88;5.82;;;7.40;87.80;;;;;;5075023;28;20036;-81
2022/03/27 03:24:30;;;;;;;10.80;5.47;;;7.40;87.80;;;;;;5074890;28;20071;-81
2022/03/27 03:26:56;;;;;;;16.40;5.63;;;7.40;87.80;;;;;;5074883;28;20101;-81
2022/03/27 03:29:23;;;;;;;15.43;6.80;;;7.30;87.80;;;;;;5058266;28;20580;-81
2022/03/27 03:31:49;;;;;;;18.08;6.03;;;7.30;87.80;;;;;;5058069;28;20126;-81
2022/03/27 03:34:16;;;;;;;18.20;5.93;;;7.30;87.70;;;;;;5057936;28;20051;-81
2022/03/27 03:36:43;;;;;;;12.43;5.22;;;7.20;87.70;;;;;;5058282;28;20044;-81
2022/03/27 03:39:09;;;;;;;13.23;5.25;;;7.10;87.70;;;;;;5074721;28;20032;-81
2022/03/27 03:41:35;;;;;;;15.98;6.13;;;7.10;87.80;;;;;;5074699;28;20040;-81
2022/03/27 03:44:12;;;;;;;19.38;6.10;;;7.10;87.80;;;;;;5058380;28;20032;-81
2022/03/27 03:46:37;;;;;;;13.63;5.72;;;7.00;87.70;;;;;;5046556;28;20040;-81
2022/03/27 03:49:07;;;;;;;10.98;5.03;;;7.00;87.80;;;;;;5078670;28;20050;-81
2022/03/27 03:51:36;;;;;;;15.35;5.88;;;6.90;87.70;;;;;;5078752;28;20152;-81
2022/03/27 03:54:06;;;;;;;11.30;5.70;;;6.90;87.80;;;;;;5078908;28;20115;-81
2022/03/27 03:56:32;;;;;;;15.00;6.05;;;6.80;87.90;;;;;;5061938;28;20040;-81
2022/03/27 03:58:58;;;;;;;13.32;5.18;;;6.80;87.90;;;;;;5062187;28;20036;-81
2022/03/27 04:01:24;;;;;;;13.65;5.25;;;6.70;87.90;;;;;;5078461;28;20131;-81
2022/03/27 04:03:50;;;;;;;15.75;4.93;;;6.70;87.80;;;;;;5078714;28;20123;-81
2022/03/27 04:06:16;;;;;;;16.33;5.38;;;6.60;87.80;;;;;;5078427;28;20044;-81
2022/03/27 04:08:42;;;;;;;16.85;5.68;;;6.60;87.90;;;;;;5062104;28;20036;-81
2022/03/27 04:11:07;;;;;;;17.75;5.80;;;6.50;88.00;;;;;;5061371;28;20404;-81
2022/03/27 04:13:33;;;;;;;19.10;6.03;;;6.50;87.90;;;;;;5078264;28;20143;-81
2022/03/27 04:16:00;;;;;;;20.42;5.47;;;6.50;88.00;;;;;;5061482;28;20047;-81
2022/03/27 04:18:26;;;;;;;13.23;5.45;;;6.50;88.00;;;;;;5061772;28;20435;-81
2022/03/27 04:20:52;;;;;;;16.75;6.10;;;6.40;87.90;;;;;;5078138;28;20036;-81
2022/03/27 04:23:17;;;;;;;14.35;5.40;;;6.40;88.10;;;;;;5078278;28;20499;-81
2022/03/27 04:25:43;;;;;;;21.80;5.45;;;6.30;88.10;;;;;;5061573;28;20040;-81
2022/03/27 04:28:10;;;;;;;19.23;6.78;;;6.30;88.00;;;;;;5078030;28;20537;-81
2022/03/27 04:30:37;;;;;;;15.75;5.53;;;6.30;88.00;;;;;;5078021;28;20257;-81
2022/03/27 04:33:03;;;;;;;16.38;7.03;;;6.30;88.00;;;;;;5078160;28;20584;-81
2022/03/27 04:35:29;;;;;;;15.43;6.90;;;6.20;88.10;;;;;;5060914;28;20060;-81
2022/03/27 04:37:55;;;;;;;15.65;6.15;;;6.20;88.10;;;;;;5077798;28;20040;-81
2022/03/27 04:40:21;;;;;;;14.75;5.25;;;6.20;88.20;;;;;;5077615;28;20072;-81
2022/03/27 04:42:46;;;;;;;14.20;5.40;;;6.20;88.20;;;;;;5078201;28;20040;-81
2022/03/27 04:45:12;;;;;;;14.75;5.65;;;6.10;88.40;;;;;;5044479;28;20033;-80
2022/03/27 04:47:39;;;;;;;18.15;5.50;;;6.20;88.20;;;;;;5077619;28;20038;-81
2022/03/27 04:50:06;;;;;;;22.17;6.55;;;6.10;88.10;;;;;;5077614;28;20044;-81
2022/03/27 04:52:32;;;;;;;18.33;6.65;;;6.10;88.20;;;;;;5095676;28;20130;-81
2022/03/27 04:54:58;;;;;;;17.10;5.78;;;6.10;88.40;;;;;;5060971;28;20117;-80
2022/03/27 04:57:24;;;;;;;14.90;6.07;;;6.10;88.60;;;;;;5077872;28;20464;-80
2022/03/27 04:59:50;;;;;;;20.92;6.25;;;6.10;88.50;;;;;;5061035;28;20131;-81
2022/03/27 05:02:16;;;;;;;19.40;6.05;;;6.00;88.30;;;;;;5077470;28;20119;-81
2022/03/27 05:04:44;;;;;;;16.77;6.60;;;6.00;88.40;;;;;;5077403;28;20078;-81
2022/03/27 05:07:10;;;;;;;20.38;6.20;;;5.90;88.40;;;;;;5077206;28;20032;-81
2022/03/27 05:09:36;;;;;;;17.77;6.88;;;6.00;88.40;;;;;;5076920;28;20052;-81
2022/03/27 05:12:02;;;;;;;15.40;6.00;;;5.90;88.40;;;;;;5077030;28;20044;-81
2022/03/27 05:14:27;;;;;;;19.92;6.55;;;5.90;88.40;;;;;;5060445;28;20040;-81
2022/03/27 05:16:53;;;;;;;18.88;6.00;;;5.80;88.50;;;;;;5043703;28;20047;-81
2022/03/27 05:19:19;;;;;;;19.80;5.72;;;5.80;88.70;;;;;;5060082;28;20044;-81
2022/03/27 05:21:44;;;;;;;24.23;6.95;;;5.80;88.70;;;;;;5076489;28;20032;-80
2022/03/27 05:24:10;;;;;;;27.50;6.63;;;5.80;88.80;;;;;;5059941;28;20040;-81
2022/03/27 05:26:36;;;;;;;21.38;5.72;;;5.80;88.90;;;;;;5060187;28;20123;-80
2022/03/27 05:29:08;;;;;;;25.20;6.40;;;5.80;88.90;;;;;;5060254;28;20078;-81
2022/03/27 05:31:34;;;;;;;19.67;6.70;;;5.70;88.90;;;;;;5060429;28;20044;-81
2022/03/27 05:34:00;;;;;;;17.33;5.82;;;5.70;88.80;;;;;;5060362;28;20493;-81
2022/03/27 05:36:26;;;;;;;25.77;6.63;;;5.70;88.80;;;;;;5060188;28;20523;-81
2022/03/27 05:38:52;;;;;;;18.83;6.25;;;5.70;88.80;;;;;;5076685;28;20047;-81
2022/03/27 05:41:18;;;;;;;19.65;7.32;;;5.70;88.80;;;;;;5076593;28;20044;-81
2022/03/27 05:43:43;;;;;;;25.00;6.35;;;5.70;88.90;;;;;;5076977;28;20044;-81
2022/03/27 05:46:10;;;;;;;21.55;7.22;;;5.70;88.80;;;;;;5043676;28;20551;-81
2022/03/27 05:48:36;;;;;;;20.67;6.38;;;5.70;88.90;;;;;;5076613;28;20044;-80
2022/03/27 05:51:02;;;;;;;19.15;6.10;;;5.60;88.90;;;;;;5076470;28;20407;-80
2022/03/27 05:53:29;;;;;;;18.23;6.50;;;5.60;88.90;;;;;;5059618;28;20036;-80
2022/03/27 05:55:57;;;;;;;25.58;7.60;;;5.60;88.90;;;;;;5060432;28;20126;-81
2022/03/27 05:58:23;;;;;;;23.17;7.28;;;5.60;89.00;;;;;;5059920;28;20435;-81
2022/03/27 06:00:50;;;;;;;23.77;6.65;;;5.70;89.00;;;;;;5076143;28;20500;-79
2022/03/27 06:03:16;;;;;;;29.05;7.05;;;5.70;89.20;;;;;;5076161;28;20081;-80
2022/03/27 06:05:42;;;;;;;24.30;6.95;;;5.70;89.10;;;;;;5076375;28;20036;-80
2022/03/27 06:08:08;;;;;;;19.55;7.28;;;5.80;89.20;;;;;;5077316;28;20028;-81
2022/03/27 06:10:35;;;;;;;27.92;7.10;;;5.80;89.30;;;;;;5026893;28;20040;-80
2022/03/27 06:13:02;;;;;;;31.60;8.23;;;5.90;89.40;;;;;;5075956;28;20123;-81
2022/03/27 06:15:29;;;;;;;29.95;7.85;;;5.90;89.40;;;;;;5042740;28;20052;-80
2022/03/27 06:17:56;;;;;;;27.63;6.05;;;6.00;89.30;;;;;;5075914;28;20044;-81
2022/03/27 06:20:28;;;;;;;30.15;6.60;;;6.00;89.50;;;;;;5075618;28;20132;-80
2022/03/27 06:22:54;;;;;;;24.23;6.70;;;6.00;89.40;;;;;;5075924;28;20035;-80
2022/03/27 06:25:27;;;;;;;33.45;7.15;;;6.00;89.60;;;;;;5075731;28;20047;-80
2022/03/27 06:27:53;;;;;;;30.50;6.93;;;6.10;89.40;;;;;;5075958;28;20039;-80
2022/03/27 06:30:21;;;;;;;40.05;9.48;;;6.10;89.50;;;;;;5075995;28;20193;-81
2022/03/27 06:32:47;;;;;;;28.20;7.43;;;6.10;89.60;;;;;;5059022;28;20047;-81
2022/03/27 06:35:15;;;;;;;32.20;7.70;;;6.20;89.70;;;;;;5075327;28;20064;-81
2022/03/27 06:37:41;;;;;;;28.00;6.72;;;6.30;89.40;;;;;;5075513;28;20054;-80
2022/03/27 06:40:09;;;;;;;36.13;7.72;;;6.30;89.30;;;;;;5075462;28;20036;-80
2022/03/27 06:42:35;;;;;;;32.50;7.95;;;6.40;89.40;;;;;;5075597;28;20035;-81
2022/03/27 06:45:02;;;;;;;32.85;7.80;;;6.40;89.40;;;;;;5077160;28;20131;-81
2022/03/27 06:47:29;;;;;;;26.48;6.20;;;6.50;89.80;;;;;;5046107;28;20101;-81
2022/03/27 06:49:56;;;;;;;27.77;6.30;;;6.50;89.50;;;;;;5076758;28;20369;-81
2022/03/27 06:52:23;;;;;;;30.50;6.43;;;6.60;89.70;;;;;;5058463;28;20036;-81
2022/03/27 06:54:49;;;;;;;30.45;5.65;;;6.70;89.50;;;;;;5075555;28;20036;-81
2022/03/27 06:57:15;;;;;;;38.35;7.30;;;6.80;89.20;;;;;;5075192;28;20500;-81
2022/03/27 07:05:09;;;;;;;24.05;6.68;;;7.10;89.30;;;;;;5060923;28;20044;-81
2022/03/27 07:07:36;;;;;;;29.55;6.97;;;7.10;89.20;;;;;;5058692;28;20124;-80
2022/03/27 07:10:03;;;;;;;30.90;7.13;;;7.20;89.00;;;;;;5075344;28;20036;-81
2022/03/27 07:12:28;;;;;;;33.25;6.85;;;7.30;88.90;;;;;;5041720;28;20040;-81
2022/03/27 07:14:54;;;;;;;27.20;6.65;;;7.40;89.00;;;;;;5041986;28;20365;-80
2022/03/27 07:17:20;;;;;;;23.92;5.60;;;7.40;88.80;;;;;;5058290;28;20530;-80
2022/03/27 07:19:46;;;;;;;31.50;7.22;;;7.50;88.70;;;;;;5058155;28;20036;-79
2022/03/27 07:22:14;;;;;;;44.55;8.30;;;7.50;88.60;;;;;;5074947;28;20040;-80
2022/03/27 07:24:40;;;;;;;30.40;8.23;;;7.60;88.50;;;;;;5058343;28;20119;-81
2022/03/27 07:27:06;;;;;;;35.88;7.30;;;7.70;88.50;;;;;;5074856;28;20488;-81
2022/03/27 07:29:32;;;;;;;39.95;9.02;;;7.70;88.40;;;;;;5074762;28;20043;-80
2022/03/27 07:31:58;;;;;;;36.08;6.88;;;7.80;88.30;;;;;;5058561;28;20036;-81
2022/03/27 07:34:25;;;;;;;27.02;7.05;;;7.90;88.40;;;;;;5074811;28;20314;-80
2022/03/27 07:36:50;;;;;;;32.58;7.28;;;8.10;88.30;;;;;;5041858;28;20059;-80
2022/03/27 07:39:16;;;;;;;31.02;6.55;;;8.10;88.10;;;;;;5058272;28;20543;-81
2022/03/27 07:41:42;;;;;;;31.08;6.95;;;8.20;87.80;;;;;;5074985;28;20433;-81
2022/03/27 07:44:08;;;;;;;31.10;7.57;;;8.30;87.60;;;;;;5074921;28;20483;-81
2022/03/27 07:46:33;;;;;;;37.53;8.73;;;8.40;87.10;;;;;;5074904;28;20506;-81
2022/03/27 07:48:59;;;;;;;32.70;7.93;;;8.50;87.00;;;;;;5074741;28;20470;-80
2022/03/27 07:51:25;;;;;;;40.20;8.85;;;8.50;86.80;;;;;;5041621;28;20047;-81
2022/03/27 07:53:52;;;;;;;37.92;8.80;;;8.50;86.50;;;;;;5074667;28;20040;-80
2022/03/27 07:56:19;;;;;;;42.35;8.93;;;8.60;86.10;;;;;;5074597;28;20040;-80
2022/03/27 07:58:45;;;;;;;35.22;8.70;;;8.60;85.80;;;;;;5074664;28;20119;-80
2022/03/27 08:01:15;;;;;;;31.60;8.18;;;8.60;85.90;;;;;;5057941;28;20151;-80
2022/03/27 08:03:44;;;;;;;39.63;8.20;;;8.70;85.70;;;;;;5074670;28;20028;-80
2022/03/27 08:06:10;;;;;;;40.42;8.70;;;8.80;85.50;;;;;;5074466;28;20036;-80
2022/03/27 08:08:36;;;;;;;31.35;8.23;;;8.90;85.10;;;;;;5074871;28;20071;-80
2022/03/27 08:11:02;;;;;;;24.17;5.68;;;9.00;85.00;;;;;;5057799;28;20047;-79
2022/03/27 08:13:28;;;;;;;37.45;8.52;;;9.00;84.80;;;;;;5074385;28;20047;-80
2022/03/27 08:15:54;;;;;;;32.92;8.13;;;9.00;84.80;;;;;;5057486;28;20075;-80
2022/03/27 08:18:20;;;;;;;33.05;8.18;;;9.10;84.80;;;;;;5057724;28;20125;-80
2022/03/27 08:20:46;;;;;;;32.08;7.45;;;9.20;84.60;;;;;;5074340;28;20047;-80
2022/03/27 08:23:12;;;;;;;28.45;7.40;;;9.30;84.40;;;;;;5057762;28;20036;-80
2022/03/27 08:28:22;;;;;;;28.20;6.90;;;9.50;83.70;;;;;;5074272;28;20047;-82
2022/03/27 08:30:49;;;;;;;30.95;6.78;;;9.60;83.30;;;;;;5074293;28;20145;-81
2022/03/27 08:33:16;;;;;;;32.40;6.53;;;9.70;82.90;;;;;;5061266;28;20040;-81
2022/03/27 08:35:42;;;;;;;40.53;8.10;;;9.70;82.40;;;;;;5061373;28;20048;-81
2022/03/27 08:38:12;;;;;;;33.58;8.18;;;9.80;81.70;;;;;;5077401;28;20442;-80
2022/03/27 08:40:39;;;;;;;31.75;6.65;;;9.90;81.50;;;;;;5061158;28;20062;-82
2022/03/27 08:43:12;;;;;;;30.95;6.90;;;10.00;81.10;;;;;;5045353;28;20101;-81
2022/03/27 08:45:38;;;;;;;30.27;8.75;;;10.00;80.90;;;;;;5061213;28;20040;-80
2022/03/27 08:48:04;;;;;;;24.90;6.55;;;10.10;80.50;;;;;;5045237;28;20054;-81
2022/03/27 08:50:42;;;;;;;27.95;7.13;;;10.20;80.00;;;;;;5061047;28;20044;-81
2022/03/27 08:53:11;;;;;;;36.78;7.93;;;10.20;80.10;;;;;;5077918;28;20036;-81
2022/03/27 08:55:56;;;;;;;27.45;7.10;;;10.30;79.80;;;;;;5077516;28;20073;-81
2022/03/27 08:58:30;;;;;;;30.23;7.20;;;10.40;79.20;;;;;;5060975;28;20072;-83
2022/03/27 09:00:56;;;;;;;22.65;6.90;;;10.40;79.10;;;;;;5077527;28;20142;-81
2022/03/27 09:03:23;;;;;;;26.75;6.00;;;10.50;78.60;;;;;;5060801;28;20036;-82
2022/03/27 09:05:51;;;;;;;27.15;6.65;;;10.50;78.60;;;;;;5077251;28;20470;-81
2022/03/27 09:08:17;;;;;;;30.52;8.68;;;10.60;78.20;;;;;;5077227;28;20123;-82
2022/03/27 09:10:43;;;;;;;31.60;7.25;;;10.70;77.90;;;;;;5077250;28;20052;-81
2022/03/27 09:13:14;;;;;;;32.85;8.30;;;10.70;77.20;;;;;;5077471;28;20040;-81
2022/03/27 09:15:43;;;;;;;23.08;7.10;;;10.80;76.70;;;;;;5060371;28;20054;-83
2022/03/27 09:18:10;;;;;;;28.00;6.75;;;10.90;76.50;;;;;;5060686;28;20051;-82
2022/03/27 09:20:39;;;;;;;26.55;6.07;;;10.90;76.60;;;;;;5060434;28;20081;-81
2022/03/27 09:23:19;;;;;;;30.10;6.50;;;11.00;76.70;;;;;;5060318;28;20127;-82
2022/03/27 09:25:48;;;;;;;27.40;7.68;;;11.10;76.70;;;;;;5077223;28;20039;-82
2022/03/27 09:28:29;;;;;;;25.42;6.25;;;11.20;76.20;;;;;;5044293;28;20561;-79
2022/03/27 09:30:57;;;;;;;27.92;6.78;;;11.40;76.10;;;;;;5060295;28;20051;-81
2022/03/27 09:33:51;;;;;;;40.22;8.55;;;11.40;75.30;;;;;;5076844;28;20123;-80
2022/03/27 09:36:27;;;;;;;29.40;5.63;;;11.40;75.20;;;;;;5076658;28;20135;-81
2022/03/27 09:39:02;;;;;;;23.45;7.07;;;11.50;74.80;;;;;;5059944;28;20044;-80
2022/03/27 09:41:41;;;;;;;21.23;5.13;;;11.50;73.40;;;;;;5059827;28;20044;-81
2022/03/27 09:44:12;;;;;;;26.90;6.30;;;11.60;73.00;;;;;;5059962;28;20039;-80
2022/03/27 09:46:55;;;;;;;25.50;7.05;;;11.60;72.30;;;;;;5076805;28;20430;-79
2022/03/27 09:49:37;;;;;;;25.53;6.23;;;11.70;72.20;;;;;;5076890;28;20507;-81
2022/03/27 09:52:19;;;;;;;22.13;7.15;;;11.90;73.40;;;;;;5076493;28;20286;-79
2022/03/27 09:54:53;;;;;;;26.30;5.68;;;12.00;71.60;;;;;;5076591;28;20093;-79
2022/03/27 09:57:21;;;;;;;20.70;5.70;;;12.00;70.00;;;;;;5059707;28;20093;-81
2022/03/27 09:59:47;;;;;;;20.92;6.60;;;12.00;68.90;;;;;;5059808;28;20070;-82
2022/03/27 10:02:20;;;;;;;22.63;6.32;;;12.10;68.70;;;;;;5059769;28;20480;-80
2022/03/27 10:04:56;;;;;;;20.38;6.22;;;12.20;69.50;;;;;;5060365;28;20038;-81
2022/03/27 10:07:25;;;;;;;17.83;4.97;;;12.40;69.70;;;;;;5043103;28;20036;-82
2022/03/27 10:09:55;;;;;;;14.35;5.78;;;12.50;68.80;;;;;;5076133;28;20063;-81
2022/03/27 10:12:30;;;;;;;16.35;5.82;;;12.60;67.80;;;;;;5059572;28;20127;-82
2022/03/27 10:15:03;;;;;;;19.83;6.15;;;12.80;68.30;;;;;;5064788;28;20040;-84
2022/03/27 10:17:31;;;;;;;15.02;4.18;;;13.00;68.40;;;;;;5063910;28;20377;-81
2022/03/27 10:20:05;;;;;;;22.08;5.15;;;13.20;66.70;;;;;;5075853;28;20131;-80
2022/03/27 10:22:31;;;;;;;11.98;3.85;;;13.30;65.40;;;;;;5075869;28;20051;-79
2022/03/27 10:25:03;;;;;;;9.85;3.38;;;13.40;64.50;;;;;;5059384;28;20040;-80
2022/03/27 10:27:30;;;;;;;12.45;3.47;;;13.50;60.40;;;;;;5042764;28;20040;-80
2022/03/27 10:29:59;;;;;;;13.15;3.53;;;13.50;56.00;;;;;;5059062;28;20097;-80
2022/03/27 10:32:25;;;;;;;13.30;3.13;;;13.50;56.40;;;;;;5059174;28;20044;-80
2022/03/27 10:34:53;;;;;;;12.70;4.68;;;13.50;55.50;;;;;;5075209;28;20512;-79
2022/03/27 10:37:22;;;;;;;11.98;3.13;;;13.60;55.80;;;;;;5058872;28;20043;-79
2022/03/27 10:40:09;;;;;;;10.55;2.90;;;13.70;56.90;;;;;;5075464;28;20040;-79
2022/03/27 10:43:05;;;;;;;10.20;3.88;;;13.80;55.10;;;;;;5058912;28;20040;-80
2022/03/27 10:45:32;;;;;;;10.73;3.47;;;14.00;54.90;;;;;;5075647;28;20058;-79
2022/03/27 10:48:15;;;;;;;14.05;3.95;;;14.00;54.20;;;;;;5075499;28;20373;-79
2022/03/27 10:50:52;;;;;;;13.10;3.55;;;14.10;55.40;;;;;;5059291;28;20101;-79
2022/03/27 10:53:22;;;;;;;16.00;4.55;;;14.10;53.00;;;;;;5075068;28;20048;-79
2022/03/27 10:55:51;;;;;;;12.18;3.50;;;14.20;53.40;;;;;;5057893;28;20082;-80
2022/03/27 10:58:39;;;;;;;12.70;3.80;;;14.30;52.70;;;;;;5075437;28;20079;-80
2022/03/27 11:01:28;;;;;;;10.52;3.70;;;14.50;55.10;;;;;;5075162;28;20044;-80
2022/03/27 11:04:05;;;;;;;14.43;4.18;;;14.60;52.00;;;;;;5057884;28;20040;-81
2022/03/27 11:06:36;;;;;;;12.30;3.63;;;14.60;51.20;;;;;;5075011;28;20044;-79
2022/03/27 11:09:04;;;;;;;13.55;3.97;;;14.70;52.10;;;;;;5058490;28;20043;-79
2022/03/27 11:11:39;;;;;;;8.50;2.75;;;14.90;51.00;;;;;;5075057;28;20040;-80
2022/03/27 11:14:07;;;;;;;9.10;2.72;;;15.00;50.40;;;;;;5058237;28;20036;-81
2022/03/27 11:16:36;;;;;;;9.70;3.97;;;14.90;50.00;;;;;;5058196;28;20040;-81
2022/03/27 11:19:02;;;;;;;8.88;3.50;;;15.00;50.60;;;;;;5058363;28;20044;-80
2022/03/27 11:21:28;;;;;;;10.80;3.28;;;15.20;51.50;;;;;;5074859;28;20048;-81
2022/03/27 11:23:55;;;;;;;9.95;4.07;;;15.40;51.80;;;;;;5075131;28;20036;-81
2022/03/27 11:26:21;;;;;;;9.70;3.20;;;15.50;51.70;;;;;;5074851;28;20593;-81
2022/03/27 11:29:05;;;;;;;10.05;3.55;;;15.50;50.90;;;;;;5074944;28;20044;-80
2022/03/27 11:31:35;;;;;;;9.23;2.72;;;15.60;50.30;;;;;;5058249;28;20040;-80
2022/03/27 11:34:05;;;;;;;12.02;2.85;;;15.80;50.50;;;;;;5074776;28;20122;-81
2022/03/27 11:36:35;;;;;;;10.20;2.88;;;15.90;49.90;;;;;;5074814;28;20553;-81
2022/03/27 11:39:08;;;;;;;10.25;2.80;;;16.00;50.10;;;;;;5058381;28;20097;-81
2022/03/27 11:41:42;;;;;;;10.60;3.15;;;16.00;49.80;;;;;;5074625;28;20044;-80
2022/03/27 11:45:06;;;;;;;11.52;2.75;;;16.00;48.90;;;;;;5075049;28;20082;-80
2022/03/27 11:47:22;;;;;;;11.07;3.13;;;16.00;49.30;;;;;;5074903;28;20098;-80
2022/03/27 11:49:50;;;;;;;10.13;3.72;;;16.00;49.00;;;;;;5058320;28;20055;-81
2022/03/27 11:52:18;;;;;;;10.75;3.45;;;16.00;48.70;;;;;;5075017;28;20051;-81
2022/03/27 11:54:47;;;;;;;8.40;2.50;;;16.00;49.10;;;;;;5075033;28;20484;-81
2022/03/27 11:57:13;;;;;;;14.45;3.58;;;16.00;50.50;;;;;;5074591;28;20123;-80
2022/03/27 11:59:50;;;;;;;11.30;3.30;;;16.20;50.30;;;;;;5058004;28;20044;-81
2022/03/27 12:02:18;;;;;;;18.00;4.05;;;16.30;50.30;;;;;;5074585;28;20484;-81
2022/03/27 12:04:52;;;;;;;14.27;3.85;;;16.40;48.00;;;;;;5074772;28;20055;-81
2022/03/27 12:07:18;;;;;;;12.88;3.60;;;16.50;47.70;;;;;;5061998;28;20358;-81
2022/03/27 12:09:44;;;;;;;10.05;3.45;;;16.50;47.60;;;;;;5078531;28;20510;-81
2022/03/27 12:12:11;;;;;;;11.52;3.63;;;16.50;47.00;;;;;;5078460;28;20047;-80
2022/03/27 12:14:57;;;;;;;12.10;2.80;;;16.60;46.70;;;;;;5078266;28;20488;-80
2022/03/27 12:17:24;;;;;;;10.45;2.55;;;16.70;45.50;;;;;;5078188;28;20028;-82
2022/03/27 12:20:10;;;;;;;7.63;2.50;;;16.70;46.00;;;;;;5078311;28;20542;-81
2022/03/27 12:22:40;;;;;;;8.85;2.42;;;16.70;44.40;;;;;;5047003;28;20362;-82
2022/03/27 12:25:10;;;;;;;10.70;2.50;;;16.70;44.20;;;;;;5078109;28;20071;-81
2022/03/27 12:30:33;;;;;;;8.00;2.78;;;16.80;46.70;;;;;;5078017;28;20135;-82
2022/03/27 12:33:01;;;;;;;10.45;2.70;;;17.00;47.70;;;;;;5061281;28;20545;-82
2022/03/27 12:35:28;;;;;;;9.57;2.78;;;17.10;46.10;;;;;;5061067;28;20060;-83
2022/03/27 12:37:55;;;;;;;10.45;2.55;;;17.20;43.70;;;;;;5077797;28;20044;-83
2022/03/27 12:40:21;;;;;;;8.30;2.55;;;17.10;45.10;;;;;;5077905;28;20396;-82
2022/03/27 12:42:48;;;;;;;8.93;2.95;;;17.20;46.00;;;;;;5061185;28;20047;-83
2022/03/27 12:45:26;;;;;;;7.35;2.47;;;17.30;45.80;;;;;;5078305;28;20048;-83
2022/03/27 12:48:02;;;;;;;8.73;2.95;;;17.40;46.60;;;;;;5077774;28;20040;-82
2022/03/27 12:50:32;;;;;;;10.18;3.38;;;17.50;44.00;;;;;;5061490;28;20062;-83
2022/03/27 12:53:12;;;;;;;10.63;3.03;;;17.50;43.90;;;;;;5078114;28;20036;-83
2022/03/27 12:55:53;;;;;;;10.55;2.70;;;17.50;44.70;;;;;;5061164;28;20393;-79
2022/03/27 12:58:37;;;;;;;12.40;3.10;;;17.50;45.70;;;;;;5060822;28;20093;-81
2022/03/27 13:01:17;;;;;;;13.18;2.40;;;17.50;45.90;;;;;;5060893;28;20047;-80
2022/03/27 13:04:04;;;;;;;11.07;2.90;;;17.60;47.10;;;;;;5061077;28;20383;-80
2022/03/27 13:06:41;;;;;;;12.32;2.90;;;17.60;46.70;;;;;;5077603;28;20042;-81